Time;durP1;ratioP1;P1;durP2;ratioP2;P2;SDS_P1;SDS_P2;PMS_P1;PMS_P2;Temp;Humidity;BMP_temperature;BMP_pressure;BME280_temperature;BME280_humidity;BME280_pressure;Samples;Min_cycle;Max_cycle;Signal;HPM_P1;HPM_P2
2022/08/01 00:01:37;;;;;;;11.95;10.50;;;;;;;20.53;84.93;101396.06;3591841;39;20385;-61
2022/08/01 00:04:03;;;;;;;15.30;11.00;;;;;;;20.18;84.80;101340.16;3594405;39;20117;-61
2022/08/01 00:06:29;;;;;;;12.88;10.68;;;;;;;20.51;85.12;101389.88;3591580;39;20074;-60
2022/08/01 00:08:55;;;;;;;13.75;11.15;;;;;;;20.50;84.78;101396.31;3593167;39;20115;-61
2022/08/01 00:11:21;;;;;;;15.15;11.43;;;;;;;20.48;84.75;101401.03;3591786;39;20060;-60
2022/08/01 00:13:46;;;;;;;15.60;11.80;;;;;;;20.50;85.32;101399.03;3592488;39;20055;-60
2022/08/01 00:16:12;;;;;;;14.02;11.38;;;;;;;20.50;85.10;101404.50;3593245;39;20047;-60
2022/08/01 00:18:38;;;;;;;16.40;12.07;;;;;;;20.54;85.11;101405.09;3593479;39;20051;-60
2022/08/01 00:21:04;;;;;;;15.77;11.23;;;;;;;20.55;84.59;101404.97;3592495;39;20671;-60
2022/08/01 00:23:30;;;;;;;14.65;12.02;;;;;;;20.53;84.71;101403.38;3592153;39;20370;-60
2022/08/01 00:25:56;;;;;;;14.77;12.07;;;;;;;20.39;84.89;101380.94;3592377;39;20080;-60
2022/08/01 00:28:22;;;;;;;16.27;12.05;;;;;;;20.49;84.53;101401.91;3593309;39;20409;-60
2022/08/01 00:30:47;;;;;;;14.48;11.68;;;;;;;20.51;85.16;101402.63;3592726;39;20245;-61
2022/08/01 00:33:13;;;;;;;14.98;12.25;;;;;;;20.51;84.75;101403.53;3593720;39;20055;-61
2022/08/01 00:35:38;;;;;;;16.80;12.55;;;;;;;20.53;85.03;101406.97;3591130;39;20067;-61
2022/08/01 00:38:04;;;;;;;15.10;12.15;;;;;;;20.56;85.11;101403.97;3592488;39;20121;-60
2022/08/01 00:40:29;;;;;;;16.42;12.18;;;;;;;20.55;84.60;101407.72;3593444;39;20063;-61
2022/08/01 00:42:55;;;;;;;15.30;12.95;;;;;;;20.55;84.34;101409.53;3593435;39;20063;-60
2022/08/01 00:45:21;;;;;;;20.15;12.77;;;;;;;20.55;84.91;101402.25;3594656;39;20047;-61
2022/08/01 00:47:46;;;;;;;16.58;13.85;;;;;;;20.55;84.35;101402.25;3593458;39;20059;-61
2022/08/01 00:50:13;;;;;;;17.20;13.82;;;;;;;20.53;84.32;101404.25;3593099;39;20183;-60
2022/08/01 00:52:41;;;;;;;17.10;13.85;;;;;;;20.40;84.70;101381.81;3591133;39;20048;-61
2022/08/01 00:55:11;;;;;;;19.60;14.15;;;;;;;20.53;85.10;101406.13;3594032;39;20058;-61
2022/08/01 00:57:39;;;;;;;19.40;14.38;;;;;;;20.50;84.71;101407.25;3592082;39;20067;-61
2022/08/01 01:00:07;;;;;;;19.35;14.65;;;;;;;20.46;85.30;101414.00;3590779;39;20070;-61
2022/08/01 01:02:33;;;;;;;20.20;15.43;;;;;;;20.46;85.87;101414.00;3590409;39;20044;-61
2022/08/01 01:04:59;;;;;;;19.67;14.95;;;;;;;20.47;85.17;101404.78;3593933;39;20372;-61
2022/08/01 01:08:01;;;;;;;17.67;14.48;;;;;;;20.46;85.73;101410.41;3592072;39;20078;-61
2022/08/01 01:10:51;;;;;;;23.52;16.40;;;;;;;19.66;85.20;101285.00;3592655;39;20051;-60
2022/08/01 01:13:54;;;;;;;21.05;15.82;;;;;;;20.38;85.86;101406.50;3593811;39;20082;-60
2022/08/01 01:16:23;;;;;;;22.30;18.02;;;;;;;20.33;86.31;101410.69;3592033;39;20051;-60
2022/08/01 01:19:02;;;;;;;26.05;17.92;;;;;;;20.33;86.85;101416.13;3591859;39;20119;-61
2022/08/01 01:22:07;;;;;;;23.55;18.35;;;;;;;19.74;87.03;101303.38;3591015;39;20456;-61
2022/08/01 01:25:01;;;;;;;27.40;18.40;;;;;;;20.35;86.74;101412.25;3592762;39;20325;-61
2022/08/01 01:28:04;;;;;;;24.40;19.05;;;;;;;20.38;87.40;101400.19;3582004;39;20062;-61
2022/08/01 01:30:32;;;;;;;22.17;17.42;;;;;;;20.38;87.70;101411.13;3591311;39;20047;-60
2022/08/01 01:33:05;;;;;;;23.60;18.15;;;;;;;20.39;87.02;101396.44;3594382;39;20092;-61
2022/08/01 01:35:38;;;;;;;22.20;18.02;;;;;;;20.36;86.33;101403.09;3593038;39;20766;-61
2022/08/01 01:38:22;;;;;;;20.98;16.08;;;;;;;20.35;85.53;101395.03;3592326;39;20104;-61
2022/08/01 01:40:52;;;;;;;24.02;16.42;;;;;;;20.37;85.57;101403.94;3592442;39;20055;-61
2022/08/01 01:43:22;;;;;;;25.40;16.75;;;;;;;20.34;85.42;101405.09;3592267;39;20128;-61
2022/08/01 01:45:51;;;;;;;20.75;16.05;;;;;;;20.34;85.18;101415.16;3593664;39;20051;-60
2022/08/01 01:48:23;;;;;;;20.55;16.13;;;;;;;20.34;85.10;101404.22;3582796;39;20314;-61
2022/08/01 01:50:52;;;;;;;17.13;14.90;;;;;;;20.33;85.47;101397.91;3592071;39;20218;-61
2022/08/01 01:53:21;;;;;;;21.88;15.77;;;;;;;20.33;85.16;101406.09;3592873;39;20413;-61
2022/08/01 01:55:53;;;;;;;19.55;15.35;;;;;;;20.25;85.64;101395.03;3591221;39;20051;-61
2022/08/01 01:58:22;;;;;;;17.40;14.00;;;;;;;20.34;85.23;101406.97;3591672;39;20245;-61
2022/08/01 02:00:52;;;;;;;19.15;13.20;;;;;;;20.33;84.67;101406.09;3590398;39;20051;-61
2022/08/01 02:03:20;;;;;;;16.88;13.27;;;;;;;20.35;85.16;101411.41;3591633;39;20059;-61
2022/08/01 02:05:49;;;;;;;18.63;13.70;;;;;;;20.36;84.60;101402.19;3592611;39;20404;-61
2022/08/01 02:08:17;;;;;;;17.98;14.05;;;;;;;20.38;84.72;101403.78;3593629;39;20124;-61
2022/08/01 02:11:17;;;;;;;21.83;14.48;;;;;;;20.40;84.90;101404.50;3592351;39;20132;-61
2022/08/01 02:13:36;;;;;;;19.17;13.95;;;;;;;20.41;84.25;101399.91;3591967;39;20055;-61
2022/08/01 02:16:04;;;;;;;19.33;14.10;;;;;;;20.38;84.53;101398.31;3591684;39;20052;-61
2022/08/01 02:18:31;;;;;;;18.30;14.30;;;;;;;20.31;84.80;101390.88;3591961;39;20072;-61
2022/08/01 02:21:00;;;;;;;19.58;14.90;;;;;;;20.38;84.83;101400.19;3592116;39;20484;-61
2022/08/01 02:23:32;;;;;;;20.23;14.57;;;;;;;20.40;84.99;101409.13;3591425;39;20054;-61
2022/08/01 02:26:02;;;;;;;20.05;14.82;;;;;;;20.37;84.82;101399.34;3583201;39;20055;-61
2022/08/01 02:28:49;;;;;;;21.17;15.40;;;;;;;20.38;84.54;101402.94;3591569;39;20146;-61
2022/08/01 02:31:21;;;;;;;18.98;14.77;;;;;;;20.38;84.51;101400.19;3593382;39;20464;-61
2022/08/01 02:34:04;;;;;;;20.25;14.30;;;;;;;20.27;85.12;101392.16;3591622;39;20060;-61
2022/08/01 02:36:35;;;;;;;22.08;15.75;;;;;;;20.35;84.50;101405.94;3591067;39;20382;-61
2022/08/01 02:39:14;;;;;;;18.77;15.02;;;;;;;20.35;84.58;101405.94;3591308;39;20058;-62
2022/08/01 02:41:48;;;;;;;19.00;14.25;;;;;;;20.35;85.16;101398.59;3591752;39;20062;-61
2022/08/01 02:44:24;;;;;;;21.00;15.77;;;;;;;20.13;84.85;101371.59;3592486;39;20047;-65
2022/08/01 02:46:57;;;;;;;22.35;15.10;;;;;;;20.34;84.92;101399.63;3592519;39;20055;-62
2022/08/01 02:49:26;;;;;;;22.00;14.53;;;;;;;20.33;84.37;101394.28;3591915;39;20424;-62
2022/08/01 02:51:56;;;;;;;19.63;14.55;;;;;;;20.30;84.70;101400.06;3589056;39;20055;-62
2022/08/01 02:54:26;;;;;;;21.10;15.35;;;;;;;19.46;85.71;101258.69;3591768;39;20668;-61
2022/08/01 02:56:56;;;;;;;20.60;14.45;;;;;;;20.32;84.86;101408.97;3591058;39;20095;-61
2022/08/01 02:59:27;;;;;;;20.45;14.60;;;;;;;20.14;85.27;101376.09;3592701;39;20054;-61
2022/08/01 03:01:59;;;;;;;18.23;14.65;;;;;;;20.36;85.50;101407.66;3591781;39;20059;-61
2022/08/01 03:04:27;;;;;;;23.63;16.13;;;;;;;20.35;85.63;101400.47;3591819;39;20051;-61
2022/08/01 03:06:58;;;;;;;21.95;15.57;;;;;;;20.34;85.23;101409.69;3592082;39;20047;-60
2022/08/01 03:09:28;;;;;;;23.77;16.40;;;;;;;20.34;85.74;101413.28;3592342;39;20058;-61
2022/08/01 03:12:00;;;;;;;22.83;15.32;;;;;;;20.36;84.83;101407.66;3591621;39;20059;-61
2022/08/01 03:14:31;;;;;;;20.42;15.45;;;;;;;20.12;85.42;101373.47;3591431;39;20325;-61
2022/08/01 03:17:00;;;;;;;18.98;15.73;;;;;;;20.33;85.50;101405.22;3580992;39;20294;-61
2022/08/01 03:19:31;;;;;;;21.38;15.95;;;;;;;20.30;85.50;101408.28;3591250;39;20067;-61
2022/08/01 03:22:03;;;;;;;22.42;16.55;;;;;;;20.29;85.84;101417.44;3591688;39;20638;-61
2022/08/01 03:24:32;;;;;;;22.15;15.70;;;;;;;20.31;85.84;101418.16;3591639;39;20066;-61
2022/08/01 03:26:59;;;;;;;20.35;16.63;;;;;;;20.27;86.24;101414.88;3591612;39;20052;-61
2022/08/01 03:29:31;;;;;;;20.33;17.08;;;;;;;20.27;86.04;101420.34;3590818;39;20071;-61
2022/08/01 03:32:00;;;;;;;23.63;17.75;;;;;;;20.25;85.93;101421.47;3591710;39;20059;-61
2022/08/01 03:34:27;;;;;;;22.13;17.55;;;;;;;20.25;85.46;101411.41;3591001;39;20043;-61
2022/08/01 03:37:01;;;;;;;23.75;17.73;;;;;;;20.26;85.41;101410.41;3593994;39;20140;-61
2022/08/01 03:39:36;;;;;;;22.55;17.67;;;;;;;20.25;85.64;101416.00;3591521;39;20115;-61
2022/08/01 03:42:15;;;;;;;22.27;17.00;;;;;;;20.24;86.27;101419.75;3593819;39;20057;-61
2022/08/01 03:44:52;;;;;;;24.73;17.25;;;;;;;20.24;86.17;101411.56;3593738;39;20404;-61
2022/08/01 03:47:26;;;;;;;24.40;17.63;;;;;;;20.21;86.00;101414.59;3590184;39;20165;-61
2022/08/01 03:49:53;;;;;;;;;;;;;;;20.20;86.06;101412.84;3591967;39;20051;-61
2022/08/01 03:52:22;;;;;;;26.50;17.63;;;;;;;20.17;85.92;101428.53;3592466;39;19989;-61
2022/08/01 03:54:56;;;;;;;24.65;17.55;;;;;;;20.20;85.99;101418.31;3591898;39;20402;-61
2022/08/01 03:57:25;;;;;;;24.25;18.13;;;;;;;20.17;85.80;101417.59;3592284;39;20068;-61
2022/08/01 03:59:52;;;;;;;24.08;17.42;;;;;;;20.14;85.67;101409.69;3594916;39;20130;-60
2022/08/01 04:02:20;;;;;;;21.92;16.55;;;;;;;20.20;86.07;101418.31;3594002;39;20054;-59
2022/08/01 04:04:45;;;;;;;22.67;16.83;;;;;;;20.23;85.47;101418.00;3592455;39;20064;-60
2022/08/01 04:07:27;;;;;;;22.50;16.70;;;;;;;20.25;85.26;101426.94;3590734;39;20086;-61
2022/08/01 04:09:53;;;;;;;22.70;16.40;;;;;;;20.23;85.28;101418.00;3594771;39;20058;-60
2022/08/01 04:12:19;;;;;;;23.75;17.52;;;;;;;20.26;85.13;101421.31;3593940;39;20055;-60
2022/08/01 04:14:46;;;;;;;25.08;17.08;;;;;;;20.24;85.19;101420.63;3593801;39;20357;-60
2022/08/01 04:17:11;;;;;;;20.92;16.23;;;;;;;20.26;84.76;101428.66;3595553;39;20356;-60
2022/08/01 04:19:37;;;;;;;22.50;16.27;;;;;;;20.27;84.68;101427.66;3594109;39;20110;-60
2022/08/01 04:22:04;;;;;;;24.63;16.60;;;;;;;20.31;84.06;101424.50;3588678;39;20102;-60
2022/08/01 04:24:36;;;;;;;22.30;15.20;;;;;;;20.33;83.84;101435.25;3593821;39;20053;-60
2022/08/01 04:27:09;;;;;;;22.85;15.48;;;;;;;20.32;83.55;101434.41;3594261;39;20376;-60
2022/08/01 04:29:39;;;;;;;21.02;14.68;;;;;;;20.20;83.61;101412.84;3589419;39;20222;-60
2022/08/01 04:32:12;;;;;;;22.95;16.35;;;;;;;20.28;83.72;101426.66;3592395;39;20047;-60
2022/08/01 04:34:45;;;;;;;20.85;15.50;;;;;;;20.27;83.32;101422.22;3592802;39;20055;-60
2022/08/01 04:37:16;;;;;;;;;;;;;;;20.27;83.03;101435.84;3596387;39;20059;-62
2022/08/01 04:39:45;;;;;;;22.40;15.35;;;;;;;20.32;83.26;101428.06;3593719;39;19935;-60
2022/08/01 04:42:15;;;;;;;20.38;15.70;;;;;;;20.32;82.12;101433.53;3592437;39;20067;-60
2022/08/01 04:44:41;;;;;;;22.25;16.17;;;;;;;20.07;82.44;101397.59;3593571;39;20063;-60
2022/08/01 04:47:09;;;;;;;23.95;15.50;;;;;;;20.31;82.76;101442.75;3593400;39;20053;-60
2022/08/01 04:49:36;;;;;;;20.90;14.88;;;;;;;20.31;82.48;101448.22;3591575;39;20171;-60
2022/08/01 04:52:01;;;;;;;23.73;15.43;;;;;;;20.11;82.62;101414.59;3594895;39;20062;-60
2022/08/01 04:54:33;;;;;;;21.55;16.15;;;;;;;20.32;82.85;101452.66;3593775;39;20277;-60
2022/08/01 04:57:00;;;;;;;24.73;16.13;;;;;;;20.31;82.76;101453.66;3592522;39;20055;-60
2022/08/01 04:59:39;;;;;;;24.52;15.65;;;;;;;20.26;82.69;101450.50;3594484;39;20125;-60
2022/08/01 05:02:16;;;;;;;23.25;15.45;;;;;;;20.30;82.56;101457.41;3592448;39;20096;-60
2022/08/01 05:04:44;;;;;;;21.23;14.38;;;;;;;20.30;82.71;101462.88;3595559;39;20052;-59
2022/08/01 05:07:11;;;;;;;19.60;13.93;;;;;;;20.30;82.36;101458.28;3595791;39;20066;-59
2022/08/01 05:09:41;;;;;;;23.35;14.43;;;;;;;20.32;81.94;101466.31;3594783;39;20144;-60
2022/08/01 05:12:07;;;;;;;22.30;14.88;;;;;;;20.33;82.25;101473.47;3595164;39;20143;-60
2022/08/01 05:14:33;;;;;;;20.23;13.48;;;;;;;20.38;82.15;101473.94;3591500;39;20052;-60
2022/08/01 05:17:02;;;;;;;19.08;13.13;;;;;;;20.44;82.07;101470.63;3595098;39;20059;-60
2022/08/01 05:19:38;;;;;;;19.80;14.05;;;;;;;20.39;81.23;101462.00;3593903;39;20047;-60
2022/08/01 05:22:08;;;;;;;19.95;13.32;;;;;;;20.44;81.58;101472.50;3592825;39;20062;-60
2022/08/01 05:24:38;;;;;;;18.95;13.00;;;;;;;20.43;80.87;101473.53;3593861;39;20068;-60
2022/08/01 05:27:06;;;;;;;17.65;12.30;;;;;;;20.42;80.47;101478.09;3595251;39;20063;-60
2022/08/01 05:29:32;;;;;;;14.48;11.02;;;;;;;20.40;80.38;101478.25;3594704;39;20066;-60
2022/08/01 05:31:58;;;;;;;14.30;10.20;;;;;;;20.44;79.46;101475.22;3589583;39;20111;-60
2022/08/01 05:34:25;;;;;;;16.95;10.55;;;;;;;20.44;79.83;101481.56;3592869;39;20059;-60
2022/08/01 05:36:50;;;;;;;16.17;10.27;;;;;;;20.41;80.23;101474.50;3589650;39;20060;-60
2022/08/01 05:39:16;;;;;;;12.45;9.45;;;;;;;20.46;79.76;101471.34;3590647;39;20079;-60
2022/08/01 05:41:42;;;;;;;12.68;8.85;;;;;;;20.52;80.50;101475.41;3595860;39;20060;-60
2022/08/01 05:44:08;;;;;;;11.65;8.32;;;;;;;20.43;79.60;101449.78;3594120;39;20391;-60
2022/08/01 05:46:34;;;;;;;12.50;8.40;;;;;;;20.53;79.29;101480.72;3591506;39;20066;-60
2022/08/01 05:49:03;;;;;;;10.73;7.20;;;;;;;20.52;78.57;101476.28;3591569;39;20062;-60
2022/08/01 05:51:29;;;;;;;9.80;7.10;;;;;;;20.52;78.78;101479.00;3580920;39;20772;-60
2022/08/01 05:53:56;;;;;;;10.77;7.15;;;;;;;20.51;79.10;101471.81;3591674;39;20052;-60
2022/08/01 05:56:22;;;;;;;9.93;7.13;;;;;;;20.54;79.21;101482.44;3592008;39;20092;-60
2022/08/01 05:58:50;;;;;;;11.35;7.40;;;;;;;20.53;78.74;101475.25;3591008;39;20161;-60
2022/08/01 06:01:19;;;;;;;10.15;7.65;;;;;;;20.56;79.12;101485.91;3593517;39;20055;-60
2022/08/01 06:03:46;;;;;;;10.25;7.13;;;;;;;20.57;78.76;101482.16;3593864;39;20062;-60
2022/08/01 06:06:13;;;;;;;10.15;7.90;;;;;;;20.62;78.84;101488.06;3591387;39;20251;-60
2022/08/01 06:08:39;;;;;;;9.55;7.35;;;;;;;20.66;79.75;101490.50;3593566;39;20051;-60
2022/08/01 06:11:06;;;;;;;10.07;6.80;;;;;;;20.73;78.30;101491.66;3591100;39;20183;-60
2022/08/01 06:13:32;;;;;;;9.43;6.68;;;;;;;20.77;77.11;101488.50;3592557;39;20052;-60
2022/08/01 06:15:58;;;;;;;9.90;7.60;;;;;;;20.79;77.79;101488.34;3594288;39;20070;-60
2022/08/01 06:18:24;;;;;;;8.82;7.03;;;;;;;20.83;77.78;101487.03;3591967;39;20058;-60
2022/08/01 06:20:49;;;;;;;10.73;7.60;;;;;;;20.88;77.79;101486.59;3594789;39;20051;-60
2022/08/01 06:23:15;;;;;;;10.40;8.10;;;;;;;20.95;77.93;101480.41;3591034;39;20391;-61
2022/08/01 06:25:42;;;;;;;12.10;7.95;;;;;;;20.81;77.92;101453.53;3593631;39;20355;-61
2022/08/01 06:28:08;;;;;;;10.32;7.60;;;;;;;21.04;77.02;101486.88;3594328;39;20449;-61
2022/08/01 06:30:34;;;;;;;8.82;6.57;;;;;;;20.77;77.20;101446.63;3591188;39;20132;-61
2022/08/01 06:32:59;;;;;;;9.50;6.45;;;;;;;21.05;76.11;101486.69;3582358;39;20051;-61
2022/08/01 06:35:28;;;;;;;8.55;5.75;;;;;;;21.04;75.95;101495.94;3594185;39;20468;-61
2022/08/01 06:37:53;;;;;;;8.48;6.53;;;;;;;21.04;76.05;101493.19;3592973;39;20059;-61
2022/08/01 06:40:19;;;;;;;9.90;6.25;;;;;;;20.94;76.21;101486.03;3592111;39;20127;-61
2022/08/01 06:42:46;;;;;;;10.32;6.35;;;;;;;21.02;76.34;101497.94;3592235;39;20086;-61
2022/08/01 06:45:14;;;;;;;9.05;6.85;;;;;;;20.97;76.46;101483.84;3593824;39;20047;-62
2022/08/01 06:47:41;;;;;;;8.23;6.22;;;;;;;21.09;75.97;101504.56;3593695;39;20063;-62
2022/08/01 06:50:09;;;;;;;7.93;6.07;;;;;;;21.12;76.65;101508.00;3594586;39;20074;-61
2022/08/01 06:52:35;;;;;;;8.02;6.25;;;;;;;21.12;77.19;101503.38;3592177;39;20064;-61
2022/08/01 06:55:02;;;;;;;7.97;6.38;;;;;;;21.14;77.03;101511.44;3592076;39;20433;-61
2022/08/01 06:57:28;;;;;;;9.98;6.07;;;;;;;21.16;76.13;101509.44;3594083;39;20306;-61
2022/08/01 06:59:54;;;;;;;6.13;5.03;;;;;;;21.13;75.38;101512.47;3591633;39;20167;-61
2022/08/01 07:02:19;;;;;;;9.43;5.40;;;;;;;21.11;76.09;101509.88;3592460;39;20051;-61
2022/08/01 07:04:45;;;;;;;6.00;4.72;;;;;;;21.15;76.19;101511.28;3591727;39;20051;-61
2022/08/01 07:07:11;;;;;;;9.32;5.47;;;;;;;21.20;75.98;101510.88;3592068;39;20476;-61
2022/08/01 07:09:36;;;;;;;6.03;4.90;;;;;;;21.20;75.24;101505.41;3592634;39;20078;-61
2022/08/01 07:12:03;;;;;;;4.72;4.13;;;;;;;21.21;75.05;101510.69;3589791;39;20429;-61
2022/08/01 07:14:29;;;;;;;5.00;4.00;;;;;;;21.30;74.61;101512.56;3591410;39;20043;-61
2022/08/01 07:16:55;;;;;;;5.97;4.28;;;;;;;21.53;74.80;101510.38;3592427;39;20403;-61
2022/08/01 07:19:20;;;;;;;4.05;3.13;;;;;;;21.66;73.09;101512.78;3596340;39;20059;-61
2022/08/01 07:21:46;;;;;;;6.63;3.63;;;;;;;21.76;72.44;101510.84;3595016;39;20104;-61
2022/08/01 07:24:14;;;;;;;5.15;3.40;;;;;;;21.94;73.12;101515.50;3596033;39;20062;-61
2022/08/01 07:26:46;;;;;;;3.70;3.30;;;;;;;22.14;72.26;101524.50;3594005;39;20059;-61
2022/08/01 07:29:12;;;;;;;4.88;3.40;;;;;;;22.37;70.77;101525.81;3592259;39;20101;-61
2022/08/01 07:31:38;;;;;;;3.03;2.63;;;;;;;22.45;68.90;101520.44;3593442;39;20493;-61
2022/08/01 07:34:04;;;;;;;3.10;2.45;;;;;;;22.47;68.94;101523.84;3598116;39;20047;-61
2022/08/01 07:36:30;;;;;;;4.07;2.00;;;;;;;22.54;68.15;101523.22;3590801;39;20135;-61
2022/08/01 07:38:56;;;;;;;4.30;2.40;;;;;;;22.59;68.06;101527.22;3593968;39;20115;-61
2022/08/01 07:41:21;;;;;;;4.85;2.45;;;;;;;22.70;67.67;101528.88;3594098;39;20055;-61
2022/08/01 07:43:50;;;;;;;3.15;2.00;;;;;;;22.85;67.46;101527.28;3590822;39;20055;-61
2022/08/01 07:46:16;;;;;;;3.63;1.58;;;;;;;22.92;66.21;101528.38;3583367;40;20048;-61
2022/08/01 07:48:42;;;;;;;2.22;1.60;;;;;;;23.02;65.16;101521.97;3595157;39;20059;-61
2022/08/01 07:51:09;;;;;;;1.70;1.60;;;;;;;23.18;65.97;101524.84;3596168;39;20381;-60
2022/08/01 07:53:36;;;;;;;1.45;1.35;;;;;;;23.41;65.81;101527.94;3593683;39;20054;-60
2022/08/01 07:56:02;;;;;;;2.30;1.73;;;;;;;23.65;63.88;101532.69;3595640;39;20055;-61
2022/08/01 07:58:28;;;;;;;1.10;1.00;;;;;;;23.73;61.26;101532.78;3590545;39;20377;-61
2022/08/01 08:00:53;;;;;;;1.30;1.20;;;;;;;23.82;61.51;101534.53;3589130;39;20057;-60
2022/08/01 08:03:19;;;;;;;1.23;1.10;;;;;;;23.80;60.70;101536.59;3597539;39;20643;-61
2022/08/01 08:05:44;;;;;;;2.10;1.42;;;;;;;23.77;61.68;101536.91;3593915;39;20326;-61
2022/08/01 08:08:11;;;;;;;1.20;1.17;;;;;;;23.81;61.31;101532.81;3594225;39;20412;-61
2022/08/01 08:10:36;;;;;;;1.30;1.20;;;;;;;23.96;61.89;101537.69;3592758;39;20377;-61
2022/08/01 08:13:02;;;;;;;2.05;1.48;;;;;;;23.99;59.99;101532.72;3594847;39;20059;-61
2022/08/01 08:15:29;;;;;;;1.98;1.52;;;;;;;23.98;60.45;101541.16;3584885;39;20387;-61
2022/08/01 08:17:55;;;;;;;1.50;1.40;;;;;;;23.97;60.21;101534.75;3594801;39;20189;-61
2022/08/01 08:20:28;;;;;;;2.65;1.63;;;;;;;24.05;61.48;101536.69;3597158;39;20413;-60
2022/08/01 08:22:57;;;;;;;1.70;1.60;;;;;;;24.17;60.39;101534.50;3596163;39;20730;-61
2022/08/01 08:25:24;;;;;;;1.63;1.20;;;;;;;24.39;60.81;101542.13;3592099;39;20047;-61
2022/08/01 08:27:50;;;;;;;2.13;1.50;;;;;;;24.64;58.30;101545.81;3592966;39;20054;-61
2022/08/01 08:30:16;;;;;;;1.65;1.55;;;;;;;24.78;59.03;101539.66;3590563;39;20052;-61
2022/08/01 08:32:42;;;;;;;1.85;1.63;;;;;;;24.85;58.07;101549.97;3596226;39;20254;-61
2022/08/01 08:35:09;;;;;;;1.73;1.35;;;;;;;24.30;58.75;101491.78;3594413;39;20249;-61
2022/08/01 08:37:37;;;;;;;1.10;1.00;;;;;;;24.45;57.77;101540.63;3597181;39;20118;-61
2022/08/01 08:40:05;;;;;;;2.10;1.00;;;;;;;24.27;56.75;101541.59;3593024;39;20059;-60
2022/08/01 08:42:32;;;;;;;0.80;0.80;;;;;;;24.29;57.58;101536.78;3593934;39;20057;-61
2022/08/01 08:44:58;;;;;;;1.75;1.05;;;;;;;24.57;56.35;101542.03;3596354;39;20099;-60
2022/08/01 08:47:25;;;;;;;2.05;0.93;;;;;;;24.95;54.03;101545.16;3597367;39;20056;-61
2022/08/01 08:49:55;;;;;;;0.75;0.75;;;;;;;25.33;54.33;101537.25;3584223;39;20137;-60
2022/08/01 08:52:22;;;;;;;1.42;1.20;;;;;;;25.42;53.91;101536.22;3596593;39;20170;-61
2022/08/01 08:54:51;;;;;;;1.20;1.20;;;;;;;25.31;54.53;101548.44;3595374;39;20047;-61
2022/08/01 08:57:20;;;;;;;1.85;1.25;;;;;;;25.44;55.10;101528.66;3595848;39;20078;-61
2022/08/01 08:59:47;;;;;;;1.15;1.05;;;;;;;24.81;54.19;101405.59;3592691;39;20051;-61
2022/08/01 09:02:12;;;;;;;1.27;1.02;;;;;;;25.74;56.08;101550.94;3594790;39;20060;-61
2022/08/01 09:04:40;;;;;;;0.95;0.90;;;;;;;25.83;54.32;101544.41;3592228;39;20403;-61
2022/08/01 09:07:08;;;;;;;0.70;0.70;;;;;;;25.69;53.97;101552.34;3593396;39;20125;-61
2022/08/01 09:09:34;;;;;;;0.70;0.70;;;;;;;25.56;53.66;101551.13;3595558;39;20408;-61
2022/08/01 09:12:00;;;;;;;1.58;0.80;;;;;;;25.67;52.90;101543.38;3594320;39;20524;-61
2022/08/01 09:14:29;;;;;;;1.35;0.80;;;;;;;26.09;55.40;101550.47;3596217;39;20058;-61
2022/08/01 09:17:08;;;;;;;2.67;1.00;;;;;;;26.29;52.74;101544.53;3598152;39;20063;-61
2022/08/01 09:19:48;;;;;;;0.73;0.73;;;;;;;26.30;50.86;101557.28;3596797;39;20056;-61
2022/08/01 09:22:20;;;;;;;1.05;0.60;;;;;;;26.11;52.12;101556.69;3595084;39;20297;-61
2022/08/01 09:25:09;;;;;;;0.93;0.60;;;;;;;25.93;51.40;101558.81;3593050;39;20060;-61
2022/08/01 09:27:38;;;;;;;1.00;0.88;;;;;;;26.03;53.10;101556.69;3593969;39;20062;-61
2022/08/01 09:30:17;;;;;;;0.82;0.70;;;;;;;26.46;52.49;101557.19;3592786;39;20051;-61
2022/08/01 09:32:57;;;;;;;2.25;0.63;;;;;;;26.87;49.79;101562.47;3591541;39;20478;-61
2022/08/01 09:35:34;;;;;;;0.77;0.77;;;;;;;26.75;49.80;101566.69;3594435;39;20086;-61
2022/08/01 09:38:14;;;;;;;0.75;0.75;;;;;;;26.45;51.52;101569.28;3594387;39;20083;-61
2022/08/01 09:40:53;;;;;;;0.93;0.80;;;;;;;26.16;50.23;101559.78;3596899;39;20055;-61
2022/08/01 09:43:23;;;;;;;0.90;0.90;;;;;;;26.15;50.41;101560.78;3595611;39;20360;-61
2022/08/01 09:45:50;;;;;;;0.80;0.80;;;;;;;26.04;51.56;101510.72;3594798;39;20119;-61
2022/08/01 09:48:16;;;;;;;0.93;0.80;;;;;;;26.62;51.58;101562.63;3595459;39;20114;-61
2022/08/01 09:50:47;;;;;;;0.63;0.63;;;;;;;27.05;50.86;101557.50;3594343;39;20153;-61
2022/08/01 09:53:15;;;;;;;1.30;0.80;;;;;;;27.20;47.69;101557.56;3595063;39;20074;-61
2022/08/01 09:55:42;;;;;;;0.65;0.65;;;;;;;27.36;47.75;101562.06;3596257;39;20063;-61
2022/08/01 09:58:10;;;;;;;1.80;0.52;;;;;;;27.39;46.37;101558.06;3596081;39;20064;-61
2022/08/01 10:00:36;;;;;;;1.02;0.80;;;;;;;27.17;47.05;101562.59;3595691;39;20070;-60
2022/08/01 10:03:26;;;;;;;0.93;0.88;;;;;;;27.05;48.44;101560.25;3595699;39;20071;-61
2022/08/01 10:05:53;;;;;;;2.53;0.70;;;;;;;26.81;49.13;101566.81;3593776;39;20087;-61
2022/08/01 10:08:22;;;;;;;0.57;0.57;;;;;;;26.57;49.79;101561.44;3593660;39;20047;-61
2022/08/01 10:11:12;;;;;;;0.77;0.77;;;;;;;26.54;50.95;101559.06;3592687;39;20453;-60
2022/08/01 10:13:38;;;;;;;0.90;0.90;;;;;;;26.95;48.71;101573.41;3591449;39;20062;-61
2022/08/01 10:16:06;;;;;;;0.77;0.77;;;;;;;27.33;48.16;101567.97;3591795;39;20572;-61
2022/08/01 10:18:35;;;;;;;1.10;0.85;;;;;;;27.64;47.79;101556.78;3589595;39;20378;-60
2022/08/01 10:21:03;;;;;;;1.27;0.70;;;;;;;27.62;47.44;101519.31;3590510;39;20133;-61
2022/08/01 10:23:36;;;;;;;1.50;0.52;;;;;;;28.16;45.79;101574.31;3592010;39;20059;-61
2022/08/01 10:26:06;;;;;;;1.40;0.70;;;;;;;28.37;46.27;101571.63;3592608;39;20058;-60
2022/08/01 10:28:36;;;;;;;0.82;0.60;;;;;;;28.71;44.42;101566.50;3583448;39;20059;-60
2022/08/01 10:31:02;;;;;;;1.42;0.70;;;;;;;28.80;43.69;101568.97;3592433;39;20136;-61
2022/08/01 10:33:30;;;;;;;1.40;0.80;;;;;;;28.76;44.53;101575.91;3592725;39;20462;-60
2022/08/01 10:35:57;;;;;;;1.17;1.08;;;;;;;28.40;45.38;101574.03;3589440;39;20055;-60
2022/08/01 10:38:23;;;;;;;2.92;1.02;;;;;;;27.84;47.51;101532.22;3590132;39;20398;-61
2022/08/01 10:40:49;;;;;;;4.32;1.42;;;;;;;28.14;47.38;101579.19;3592567;39;20430;-60
2022/08/01 10:43:17;;;;;;;1.77;1.52;;;;;;;28.15;46.88;101576.22;3593086;39;20634;-61
2022/08/01 10:45:43;;;;;;;2.00;1.27;;;;;;;28.31;47.97;101575.16;3593358;39;20275;-60
2022/08/01 10:48:24;;;;;;;1.50;1.40;;;;;;;28.44;47.41;101575.34;3590796;39;20114;-60
2022/08/01 10:50:57;;;;;;;1.13;0.95;;;;;;;28.55;47.73;101571.22;3591554;39;20055;-60
2022/08/01 10:53:26;;;;;;;1.10;0.93;;;;;;;28.55;46.73;101578.69;3590976;39;20124;-61
2022/08/01 10:56:00;;;;;;;1.92;0.82;;;;;;;28.24;46.69;101575.06;3590574;39;20445;-61
2022/08/01 10:58:38;;;;;;;1.05;0.98;;;;;;;27.90;47.50;101583.09;3580793;39;20044;-61
2022/08/01 11:01:28;;;;;;;1.38;1.00;;;;;;;27.49;48.62;101570.56;3589779;39;21411;-61
2022/08/01 11:04:14;;;;;;;1.13;0.95;;;;;;;27.57;49.33;101588.97;3589311;39;20124;-61
2022/08/01 11:07:00;;;;;;;0.70;0.70;;;;;;;27.68;50.05;101590.41;3581004;39;21464;-61
2022/08/01 11:09:42;;;;;;;1.35;0.88;;;;;;;27.41;49.86;101589.97;3581955;39;20063;-61
2022/08/01 11:12:13;;;;;;;0.75;0.70;;;;;;;27.64;49.00;101597.34;3591545;39;20062;-61
2022/08/01 11:14:59;;;;;;;1.20;1.10;;;;;;;27.52;49.63;101606.09;3592458;39;20805;-62
2022/08/01 11:17:44;;;;;;;1.00;0.80;;;;;;;27.47;49.01;101610.47;3588105;39;20424;-62
2022/08/01 11:20:15;;;;;;;1.15;1.05;;;;;;;27.18;48.57;101611.22;3590497;39;20336;-62
2022/08/01 11:23:00;;;;;;;2.65;0.90;;;;;;;26.91;50.04;101607.94;3590020;39;20064;-62
2022/08/01 11:25:37;;;;;;;2.17;1.25;;;;;;;26.82;50.78;101615.41;3590063;39;20055;-62
2022/08/01 11:28:17;;;;;;;1.83;1.10;;;;;;;26.89;50.05;101610.03;3594832;39;20356;-62
2022/08/01 11:30:54;;;;;;;2.53;0.90;;;;;;;26.96;49.29;101602.75;3593424;39;20439;-62